Wetterdaten: Woche 19.11.18 - 25.11.18 (KW47)
Datum Zeit Temp. A. Feuchte A. Luftdruck Regen Wind Richtung Taupunkt Windchill Windben
19.11.2018 00:00 0,5 C 82 % 1018,2 hPa 0,0 l/m 0,5 km/h N -2,3 C 0,5 C 4,4 km/h
19.11.2018 01:00 0,1 C 82 % 1017,7 hPa 0,0 l/m 0,1 km/h N -2,6 C 0,1 C 2,8 km/h
19.11.2018 02:00 -0,1 C 82 % 1017,3 hPa 0,0 l/m 0,0 km/h N -2,8 C -0,1 C 0,8 km/h
19.11.2018 03:00 -0,3 C 82 % 1016,7 hPa 0,0 l/m 0,0 km/h N -3,0 C -0,3 C 2,0 km/h
19.11.2018 04:00 -0,4 C 81 % 1016,5 hPa 0,0 l/m 0,3 km/h N -3,3 C -0,4 C 3,6 km/h
19.11.2018 05:00 -0,4 C 81 % 1016,2 hPa 0,0 l/m 0,2 km/h N -3,3 C -0,4 C 3,2 km/h
19.11.2018 06:00 -0,4 C 81 % 1016,2 hPa 0,0 l/m 0,3 km/h N -3,3 C -0,4 C 4,0 km/h
19.11.2018 07:00 -0,4 C 81 % 1016,4 hPa 0,0 l/m 0,5 km/h N -3,2 C -0,4 C 4,8 km/h
19.11.2018 08:00 -0,3 C 82 % 1016,5 hPa 0,0 l/m 0,4 km/h N -3,1 C -0,3 C 3,2 km/h
19.11.2018 09:00 0,0 C 81 % 1016,7 hPa 0,0 l/m 0,1 km/h N -2,8 C 0,0 C 2,4 km/h
19.11.2018 10:00 0,3 C 82 % 1017,0 hPa 0,0 l/m 0,1 km/h N -2,5 C 0,3 C 3,2 km/h
19.11.2018 11:00 0,6 C 82 % 1016,8 hPa 0,0 l/m 0,1 km/h N -2,2 C 0,6 C 2,0 km/h
19.11.2018 12:00 0,7 C 82 % 1016,7 hPa 0,0 l/m 0,0 km/h N -2,0 C 0,7 C 1,6 km/h
19.11.2018 13:00 0,9 C 82 % 1016,5 hPa 0,0 l/m 0,0 km/h N -1,8 C 0,9 C 1,2 km/h
19.11.2018 14:00 1,1 C 82 % 1016,5 hPa 0,8 l/m 0,0 km/h N -1,6 C 1,1 C 1,6 km/h
19.11.2018 15:00 1,1 C 82 % 1016,9 hPa 0,5 l/m 0,0 km/h N -1,6 C 1,1 C 0,0 km/h
19.11.2018 16:00 1,1 C 82 % 1016,8 hPa 0,3 l/m 0,0 km/h N -1,6 C 1,1 C 1,6 km/h
19.11.2018 17:00 1,2 C 82 % 1017,3 hPa 0,3 l/m 0,0 km/h N -1,6 C 1,2 C 0,0 km/h
19.11.2018 18:00 1,1 C 82 % 1017,4 hPa 0,3 l/m 0,0 km/h N -1,6 C 1,1 C 1,6 km/h
19.11.2018 19:00 0,9 C 82 % 1017,7 hPa 0,0 l/m 0,0 km/h N -1,8 C 0,9 C 1,2 km/h
19.11.2018 20:00 1,0 C 82 % 1017,8 hPa 0,3 l/m 0,0 km/h N -1,7 C 1,0 C 0,8 km/h
19.11.2018 21:00 1,2 C 82 % 1017,8 hPa 0,3 l/m 0,0 km/h N -1,5 C 1,2 C 0,0 km/h
19.11.2018 22:00 1,6 C 82 % 1017,8 hPa 0,3 l/m 0,0 km/h N -1,1 C 1,6 C 1,2 km/h
19.11.2018 23:00 1,9 C 82 % 1017,5 hPa 0,3 l/m 0,1 km/h N -0,8 C 1,9 C 2,4 km/h
20.11.2018 00:00 2,0 C 82 % 1017,1 hPa 0,3 l/m 0,0 km/h N -0,8 C 2,0 C 2,8 km/h
20.11.2018 01:00 2,1 C 82 % 1016,8 hPa 0,3 l/m 0,1 km/h N -0,6 C 2,1 C 3,2 km/h
20.11.2018 02:00 2,1 C 82 % 1016,7 hPa 0,3 l/m 0,3 km/h N -0,7 C 2,1 C 6,8 km/h
20.11.2018 03:00 1,9 C 82 % 1016,4 hPa 0,0 l/m 0,1 km/h N -0,9 C 1,9 C 2,4 km/h
20.11.2018 04:00 1,8 C 82 % 1016,1 hPa 0,3 l/m 0,0 km/h N -1,0 C 1,8 C 0,8 km/h
20.11.2018 05:00 1,7 C 82 % 1015,6 hPa 0,3 l/m 0,0 km/h N -1,0 C 1,7 C 2,4 km/h
20.11.2018 06:00 1,8 C 82 % 1014,8 hPa 0,0 l/m 0,0 km/h N -0,9 C 1,8 C 1,2 km/h
20.11.2018 07:00 2,2 C 83 % 1014,2 hPa 0,0 l/m 0,1 km/h N -0,5 C 2,2 C 2,4 km/h
20.11.2018 08:00 2,2 C 83 % 1014,2 hPa 0,0 l/m 0,1 km/h N -0,4 C 2,2 C 2,8 km/h
20.11.2018 09:00 2,3 C 82 % 1014,1 hPa 0,3 l/m 0,1 km/h N -0,5 C 2,3 C 3,2 km/h
20.11.2018 10:00 2,3 C 82 % 1014,1 hPa 0,5 l/m 0,1 km/h N -0,4 C 2,3 C 2,4 km/h
20.11.2018 11:00 1,6 C 82 % 1013,4 hPa 0,8 l/m 0,0 km/h N -1,2 C 1,6 C 1,2 km/h
20.11.2018 12:00 1,0 C 82 % 1012,8 hPa 0,0 l/m 0,0 km/h N -1,7 C 1,0 C 0,0 km/h
20.11.2018 13:00 0,9 C 82 % 1012,6 hPa 0,3 l/m 0,0 km/h N -1,8 C 0,9 C 0,4 km/h
20.11.2018 14:00 1,1 C 82 % 1012,7 hPa 1,0 l/m 0,0 km/h N -1,6 C 1,1 C 0,4 km/h
20.11.2018 15:00 1,3 C 82 % 1012,4 hPa 0,5 l/m 0,1 km/h N -1,4 C 1,3 C 2,4 km/h
20.11.2018 16:00 1,3 C 83 % 1012,1 hPa 0,3 l/m 0,1 km/h N -1,3 C 1,3 C 2,0 km/h
20.11.2018 17:00 1,5 C 82 % 1012,0 hPa 0,5 l/m 0,1 km/h N -1,2 C 1,5 C 4,0 km/h
20.11.2018 18:00 1,8 C 83 % 1012,4 hPa 0,3 l/m 0,2 km/h N -0,8 C 1,8 C 2,4 km/h
20.11.2018 19:00 2,1 C 83 % 1012,4 hPa 0,5 l/m 0,3 km/h N -0,6 C 2,1 C 4,4 km/h
20.11.2018 20:00 2,2 C 83 % 1012,6 hPa 0,0 l/m 0,0 km/h N -0,4 C 2,2 C 2,4 km/h
20.11.2018 21:00 2,3 C 83 % 1012,9 hPa 0,0 l/m 0,0 km/h N -0,2 C 2,3 C 0,8 km/h
20.11.2018 22:00 2,5 C 83 % 1013,1 hPa 0,0 l/m 0,0 km/h N -0,0 C 2,5 C 0,8 km/h
20.11.2018 23:00 2,8 C 83 % 1013,8 hPa 0,0 l/m 0,0 km/h N 0,2 C 2,8 C 2,0 km/h
21.11.2018 00:00 3,0 C 83 % 1014,0 hPa 0,0 l/m 0,0 km/h N 0,4 C 3,0 C 1,2 km/h
21.11.2018 01:00 3,1 C 83 % 1013,7 hPa 0,3 l/m 0,0 km/h N 0,5 C 3,1 C 2,0 km/h
21.11.2018 02:00 3,2 C 83 % 1013,4 hPa 0,0 l/m 0,0 km/h N 0,6 C 3,2 C 0,4 km/h
21.11.2018 03:00 3,3 C 83 % 1013,8 hPa 0,0 l/m 0,0 km/h N 0,7 C 3,3 C 0,0 km/h
21.11.2018 04:00 3,4 C 83 % 1014,5 hPa 0,0 l/m 0,0 km/h N 0,8 C 3,4 C 0,0 km/h
21.11.2018 05:00 3,6 C 83 % 1014,7 hPa 0,3 l/m 0,0 km/h N 1,0 C 3,6 C 0,0 km/h
21.11.2018 06:00 3,7 C 83 % 1014,6 hPa 0,0 l/m 0,0 km/h N 1,1 C 3,7 C 0,0 km/h
21.11.2018 07:00 3,8 C 83 % 1015,0 hPa 0,0 l/m 0,0 km/h N 1,2 C 3,8 C 0,0 km/h
21.11.2018 08:00 3,9 C 83 % 1015,7 hPa 0,0 l/m 0,0 km/h N 1,3 C 3,9 C 0,8 km/h
21.11.2018 09:00 4,0 C 83 % 1016,0 hPa 0,0 l/m 0,0 km/h N 1,4 C 4,0 C 0,8 km/h
21.11.2018 10:00 4,3 C 83 % 1016,2 hPa 0,0 l/m 0,1 km/h N 1,6 C 4,3 C 2,8 km/h
21.11.2018 11:00 4,6 C 83 % 1015,8 hPa 0,0 l/m 0,0 km/h N 2,0 C 4,6 C 0,4 km/h
21.11.2018 12:00 4,9 C 83 % 1015,8 hPa 0,0 l/m 0,0 km/h N 2,2 C 4,9 C 0,8 km/h
21.11.2018 13:00 5,0 C 83 % 1015,9 hPa 0,0 l/m 0,0 km/h N 2,4 C 5,0 C 0,4 km/h
21.11.2018 14:00 5,1 C 83 % 1016,1 hPa 0,0 l/m 0,0 km/h N 2,5 C 5,1 C 0,4 km/h
21.11.2018 15:00 5,1 C 83 % 1016,5 hPa 0,3 l/m 0,0 km/h N 2,5 C 5,1 C 0,0 km/h
21.11.2018 16:00 5,2 C 83 % 1017,0 hPa 0,0 l/m 0,0 km/h N 2,6 C 5,2 C 0,0 km/h
21.11.2018 17:00 5,2 C 83 % 1017,2 hPa 0,0 l/m 0,0 km/h N 2,6 C 5,2 C 0,4 km/h
21.11.2018 18:00 5,3 C 83 % 1017,5 hPa 0,0 l/m 0,0 km/h N 2,6 C 5,3 C 1,6 km/h
21.11.2018 19:00 5,2 C 83 % 1017,7 hPa 0,0 l/m 0,0 km/h N 2,6 C 5,2 C 1,6 km/h
21.11.2018 20:00 5,1 C 83 % 1018,0 hPa 0,0 l/m 0,0 km/h N 2,5 C 5,1 C 1,2 km/h
21.11.2018 21:00 5,1 C 83 % 1018,3 hPa 0,0 l/m 0,0 km/h N 2,4 C 5,1 C 0,8 km/h
21.11.2018 22:00 5,0 C 83 % 1018,5 hPa 0,0 l/m 0,0 km/h N 2,4 C 5,0 C 1,2 km/h
21.11.2018 23:00 4,9 C 83 % 1018,7 hPa 0,0 l/m 0,2 km/h N 2,3 C 4,9 C 3,2 km/h
22.11.2018 00:00 4,3 C 83 % 1019,0 hPa 0,0 l/m 0,1 km/h N 1,7 C 4,3 C 4,0 km/h
22.11.2018 01:00 4,0 C 83 % 1019,1 hPa 0,3 l/m 0,4 km/h N 1,4 C 4,0 C 7,2 km/h
22.11.2018 02:00 3,7 C 83 % 1019,3 hPa 0,0 l/m 0,0 km/h N 1,1 C 3,7 C 0,8 km/h
22.11.2018 03:00 3,6 C 83 % 1019,5 hPa 0,0 l/m 0,0 km/h N 1,0 C 3,6 C 0,8 km/h
22.11.2018 04:00 3,5 C 83 % 1019,7 hPa 0,3 l/m 0,1 km/h N 0,9 C 3,5 C 2,0 km/h
22.11.2018 05:00 3,4 C 83 % 1019,9 hPa 0,0 l/m 0,0 km/h N 0,8 C 3,4 C 0,0 km/h
22.11.2018 06:00 3,4 C 83 % 1020,2 hPa 0,3 l/m 0,0 km/h N 0,8 C 3,4 C 0,0 km/h
22.11.2018 07:00 3,5 C 83 % 1020,6 hPa 0,0 l/m 0,0 km/h N 0,9 C 3,5 C 0,8 km/h
22.11.2018 08:00 3,6 C 83 % 1021,0 hPa 0,3 l/m 0,1 km/h N 1,0 C 3,6 C 1,2 km/h
22.11.2018 09:00 3,7 C 83 % 1021,4 hPa 0,0 l/m 0,1 km/h N 1,1 C 3,7 C 2,0 km/h
22.11.2018 10:00 3,9 C 83 % 1021,8 hPa 0,0 l/m 0,1 km/h N 1,3 C 3,9 C 2,8 km/h
22.11.2018 11:00 4,1 C 83 % 1021,7 hPa 0,0 l/m 0,2 km/h N 1,5 C 4,1 C 2,0 km/h
22.11.2018 12:00 4,2 C 83 % 1021,8 hPa 0,0 l/m 0,1 km/h N 1,6 C 4,2 C 2,4 km/h
22.11.2018 13:00 4,5 C 83 % 1021,8 hPa 0,0 l/m 0,0 km/h N 1,9 C 4,5 C 1,2 km/h
22.11.2018 14:00 4,6 C 83 % 1021,8 hPa 0,3 l/m 0,0 km/h N 2,0 C 4,6 C 0,0 km/h
22.11.2018 15:00 4,4 C 83 % 1022,0 hPa 0,0 l/m 0,0 km/h N 1,7 C 4,4 C 0,4 km/h
22.11.2018 16:00 4,2 C 83 % 1022,0 hPa 0,0 l/m 0,0 km/h N 1,5 C 4,2 C 0,0 km/h
22.11.2018 17:00 4,1 C 83 % 1022,5 hPa 0,0 l/m 0,0 km/h N 1,5 C 4,1 C 0,0 km/h
22.11.2018 18:00 4,2 C 83 % 1022,5 hPa 0,3 l/m 0,0 km/h N 1,6 C 4,2 C 0,0 km/h
22.11.2018 19:00 4,3 C 83 % 1022,4 hPa 0,0 l/m 0,0 km/h N 1,6 C 4,3 C 0,0 km/h
22.11.2018 20:00 4,4 C 83 % 1022,3 hPa 0,0 l/m 0,0 km/h N 1,8 C 4,4 C 0,0 km/h
22.11.2018 21:00 4,6 C 83 % 1022,5 hPa 0,0 l/m 0,0 km/h N 2,0 C 4,6 C 0,4 km/h
22.11.2018 22:00 4,9 C 83 % 1022,5 hPa 0,0 l/m 0,0 km/h N 2,3 C 4,9 C 0,4 km/h
22.11.2018 23:00 5,5 C 83 % 1022,2 hPa 0,0 l/m 0,0 km/h N 2,8 C 5,5 C 1,2 km/h
23.11.2018 00:00 5,6 C 83 % 1022,1 hPa 0,0 l/m 0,1 km/h N 2,9 C 5,6 C 3,2 km/h
23.11.2018 01:00 5,5 C 83 % 1022,3 hPa 0,0 l/m 0,0 km/h N 2,8 C 5,5 C 1,6 km/h
23.11.2018 02:00 5,4 C 83 % 1022,4 hPa 0,0 l/m 0,0 km/h N 2,7 C 5,4 C 0,8 km/h
23.11.2018 03:00 5,4 C 83 % 1022,4 hPa 0,0 l/m 0,0 km/h N 2,7 C 5,4 C 1,2 km/h
23.11.2018 04:00 5,3 C 83 % 1022,5 hPa 0,0 l/m 0,0 km/h N 2,7 C 5,3 C 2,0 km/h
23.11.2018 05:00 5,3 C 83 % 1022,6 hPa 0,0 l/m 0,1 km/h N 2,7 C 5,3 C 2,4 km/h
23.11.2018 06:00 5,3 C 83 % 1022,8 hPa 0,0 l/m 0,0 km/h N 2,7 C 5,3 C 2,4 km/h
23.11.2018 07:00 5,3 C 83 % 1023,0 hPa 0,0 l/m 0,1 km/h N 2,7 C 5,3 C 2,4 km/h
23.11.2018 08:00 5,4 C 83 % 1023,6 hPa 0,0 l/m 0,2 km/h N 2,8 C 5,4 C 3,2 km/h
23.11.2018 09:00 5,6 C 83 % 1023,6 hPa 0,0 l/m 0,2 km/h N 2,9 C 5,6 C 3,2 km/h
23.11.2018 10:00 5,8 C 83 % 1023,5 hPa 0,0 l/m 0,2 km/h N 3,1 C 5,8 C 3,6 km/h
23.11.2018 11:00 5,9 C 83 % 1023,2 hPa 0,0 l/m 0,4 km/h N 3,3 C 5,9 C 6,0 km/h
23.11.2018 12:00 6,2 C 83 % 1022,8 hPa 0,0 l/m 0,4 km/h N 3,5 C 6,2 C 5,2 km/h
23.11.2018 13:00 6,4 C 83 % 1022,3 hPa 0,0 l/m 0,2 km/h N 3,7 C 6,4 C 4,8 km/h
23.11.2018 14:00 6,4 C 82 % 1022,0 hPa 0,0 l/m 0,4 km/h N 3,6 C 6,4 C 4,8 km/h
23.11.2018 15:00 6,2 C 82 % 1021,8 hPa 0,0 l/m 0,7 km/h N 3,4 C 6,2 C 5,6 km/h
23.11.2018 16:00 6,2 C 82 % 1021,5 hPa 0,0 l/m 0,7 km/h N 3,3 C 6,2 C 6,4 km/h
23.11.2018 17:00 6,1 C 82 % 1021,2 hPa 0,0 l/m 2,9 km/h N 3,3 C 6,1 C 9,3 km/h
23.11.2018 18:00 6,3 C 82 % 1020,9 hPa 0,0 l/m 3,1 km/h N 3,4 C 6,3 C 7,6 km/h
23.11.2018 19:00 6,3 C 81 % 1020,3 hPa 0,0 l/m 2,0 km/h N 3,3 C 6,3 C 6,4 km/h
23.11.2018 20:00 6,3 C 81 % 1019,7 hPa 0,0 l/m 2,5 km/h N 3,3 C 6,3 C 7,6 km/h
23.11.2018 21:00 6,3 C 81 % 1019,0 hPa 0,0 l/m 2,7 km/h N 3,3 C 6,3 C 8,4 km/h
23.11.2018 22:00 6,3 C 81 % 1018,0 hPa 0,0 l/m 2,3 km/h N 3,3 C 6,3 C 8,4 km/h
23.11.2018 23:00 6,3 C 82 % 1017,3 hPa 0,0 l/m 2,7 km/h N 3,4 C 6,3 C 10,4 km/h
24.11.2018 00:00 6,3 C 82 % 1016,7 hPa 0,0 l/m 2,5 km/h N 3,5 C 6,3 C 8,9 km/h
24.11.2018 01:00 6,2 C 82 % 1016,1 hPa 0,0 l/m 1,8 km/h N 3,4 C 6,2 C 7,2 km/h
24.11.2018 02:00 6,2 C 82 % 1015,7 hPa 0,0 l/m 0,9 km/h N 3,2 C 6,2 C 7,6 km/h
24.11.2018 03:00 6,0 C 81 % 1015,0 hPa 0,0 l/m 0,6 km/h N 3,0 C 6,0 C 5,2 km/h
24.11.2018 04:00 5,9 C 81 % 1014,5 hPa 0,0 l/m 1,3 km/h N 2,9 C 5,9 C 5,2 km/h
24.11.2018 05:00 5,9 C 81 % 1014,2 hPa 0,0 l/m 0,7 km/h N 2,9 C 5,9 C 5,6 km/h
24.11.2018 06:00 5,9 C 81 % 1013,8 hPa 0,0 l/m 1,0 km/h N 2,9 C 5,9 C 5,2 km/h
24.11.2018 07:00 5,9 C 81 % 1013,6 hPa 0,0 l/m 0,3 km/h N 2,9 C 5,9 C 3,6 km/h
24.11.2018 08:00 6,0 C 81 % 1013,3 hPa 0,0 l/m 0,1 km/h N 3,0 C 6,0 C 2,4 km/h
24.11.2018 09:00 6,2 C 81 % 1013,2 hPa 0,0 l/m 0,0 km/h N 3,2 C 6,2 C 1,2 km/h
24.11.2018 10:00 6,7 C 81 % 1013,1 hPa 0,0 l/m 0,1 km/h N 3,7 C 6,7 C 2,8 km/h
24.11.2018 11:00 7,1 C 81 % 1012,8 hPa 0,0 l/m 0,1 km/h N 4,0 C 7,1 C 2,4 km/h
24.11.2018 12:00 7,5 C 81 % 1013,0 hPa 0,0 l/m 0,5 km/h N 4,5 C 7,5 C 3,2 km/h
24.11.2018 13:00 7,7 C 81 % 1013,8 hPa 0,0 l/m 5,9 km/h N 4,6 C 7,5 C 16,1 km/h
24.11.2018 14:00 7,5 C 82 % 1014,1 hPa 0,0 l/m 2,2 km/h N 4,6 C 7,5 C 8,4 km/h
24.11.2018 15:00 7,5 C 82 % 1014,4 hPa 0,0 l/m 1,0 km/h N 4,6 C 7,5 C 5,6 km/h
24.11.2018 16:00 7,6 C 81 % 1014,8 hPa 0,0 l/m 0,2 km/h N 4,6 C 7,6 C 2,8 km/h
24.11.2018 17:00 7,5 C 82 % 1015,1 hPa 0,0 l/m 0,3 km/h N 4,5 C 7,5 C 3,6 km/h
24.11.2018 18:00 7,3 C 82 % 1015,3 hPa 0,0 l/m 0,2 km/h N 4,4 C 7,3 C 3,6 km/h
24.11.2018 19:00 7,2 C 82 % 1015,5 hPa 0,0 l/m 0,0 km/h N 4,2 C 7,2 C 0,8 km/h
24.11.2018 20:00 7,1 C 82 % 1015,7 hPa 0,0 l/m 0,0 km/h N 4,2 C 7,1 C 0,0 km/h
24.11.2018 21:00 6,5 C 82 % 1015,8 hPa 0,0 l/m 0,0 km/h N 3,6 C 6,5 C 0,0 km/h
24.11.2018 22:00 5,1 C 82 % 1015,9 hPa 0,0 l/m 0,0 km/h N 2,3 C 5,1 C 0,4 km/h
24.11.2018 23:00 3,9 C 82 % 1015,9 hPa 0,0 l/m 0,0 km/h N 1,1 C 3,9 C 0,0 km/h
25.11.2018 00:00 3,0 C 82 % 1015,8 hPa 0,3 l/m 0,0 km/h N 0,3 C 3,0 C 0,0 km/h
25.11.2018 01:00 2,6 C 82 % 1015,6 hPa 0,0 l/m 0,0 km/h N -0,2 C 2,6 C 0,0 km/h
25.11.2018 02:00 3,3 C 81 % 1015,2 hPa 0,0 l/m 0,0 km/h N 0,5 C 3,3 C 0,0 km/h
25.11.2018 03:00 3,7 C 82 % 1014,6 hPa 0,0 l/m 0,0 km/h N 0,9 C 3,7 C 1,2 km/h
25.11.2018 04:00 4,1 C 82 % 1014,2 hPa 0,0 l/m 0,0 km/h N 1,3 C 4,1 C 0,0 km/h
25.11.2018 05:00 4,1 C 82 % 1014,2 hPa 0,0 l/m 0,0 km/h N 1,3 C 4,1 C 0,0 km/h
25.11.2018 06:00 4,3 C 82 % 1013,8 hPa 0,0 l/m 0,0 km/h N 1,5 C 4,3 C 0,0 km/h
25.11.2018 07:00 4,5 C 82 % 1013,6 hPa 0,0 l/m 0,0 km/h N 1,7 C 4,5 C 0,0 km/h
25.11.2018 08:00 4,9 C 82 % 1013,7 hPa 0,0 l/m 0,0 km/h N 2,1 C 4,9 C 1,2 km/h
25.11.2018 09:00 5,2 C 82 % 1013,3 hPa 0,0 l/m 0,0 km/h N 2,4 C 5,2 C 1,6 km/h
25.11.2018 10:00 5,3 C 82 % 1012,9 hPa 0,0 l/m 0,1 km/h N 2,5 C 5,3 C 2,4 km/h
25.11.2018 11:00 5,4 C 82 % 1012,1 hPa 0,0 l/m 0,0 km/h N 2,6 C 5,4 C 1,2 km/h
25.11.2018 12:00 5,7 C 82 % 1011,2 hPa 0,0 l/m 0,0 km/h N 2,9 C 5,7 C 2,0 km/h
25.11.2018 13:00 5,8 C 82 % 1010,3 hPa 0,0 l/m 0,0 km/h N 3,0 C 5,8 C 0,0 km/h
25.11.2018 14:00 5,9 C 82 % 1009,4 hPa 0,0 l/m 0,0 km/h N 3,0 C 5,9 C 2,8 km/h
25.11.2018 15:00 5,8 C 82 % 1008,9 hPa 0,0 l/m 0,1 km/h N 3,0 C 5,8 C 3,2 km/h
25.11.2018 16:00 5,8 C 82 % 1008,5 hPa 0,0 l/m 0,1 km/h N 2,9 C 5,8 C 3,2 km/h
25.11.2018 17:00 5,6 C 82 % 1008,3 hPa 0,0 l/m 0,4 km/h N 2,8 C 5,6 C 5,6 km/h
25.11.2018 18:00 5,6 C 82 % 1007,9 hPa 0,3 l/m 0,7 km/h N 2,8 C 5,6 C 6,4 km/h
25.11.2018 19:00 5,5 C 82 % 1007,4 hPa 1,0 l/m 0,3 km/h N 2,7 C 5,5 C 4,4 km/h
25.11.2018 20:00 5,5 C 82 % 1006,8 hPa 1,0 l/m 0,1 km/h N 2,7 C 5,5 C 1,6 km/h
25.11.2018 21:00 5,5 C 82 % 1006,3 hPa 0,5 l/m 0,1 km/h N 2,7 C 5,5 C 1,6 km/h
25.11.2018 22:00 5,6 C 82 % 1005,8 hPa 1,0 l/m 0,1 km/h N 2,8 C 5,6 C 1,6 km/h
25.11.2018 23:00 5,7 C 82 % 1005,3 hPa 1,0 l/m 0,1 km/h N 2,8 C 5,7 C 1,6 km/h
Min-Datum _ 19.11.18 19.11.18 25.11.18 - 19.11.18 - 19.11.18 19.11.18 19.11.18
_ Min-Zeit 04:45 03:45 23:45 - 01:30 - 04:45 04:45 02:15
Minimum _ -0,5 C 81 % 1005,1 hPa - 0,0 km/h - -3,3 C -0,5 C 0,0 km/h
Max-Datum _ 24.11.18 20.11.18 23.11.18 20.11.18 24.11.18 - 24.11.18 24.11.18 24.11.18
_ Max-Zeit 12:30 07:00 08:45 14:00 13:30 - 14:45 12:30 13:15
Maximum _ 7,7 C 83 % 1023,7 hPa 1,0 l/m 7,0 km/h
N
- 4,7 C 7,7 C 20,9 km/h
N
Durchschnitt _ 4,0 C 82 % 1016,5 hPa #16,9 l/m 0,3 km/h N 1,3 C 4,0 C 2,5 km/h